Time;durP1;ratioP1;P1;durP2;ratioP2;P2;SDS_P1;SDS_P2;PMS_P1;PMS_P2;Temp;Humidity;BMP_temperature;BMP_pressure;BME280_temperature;BME280_humidity;BME280_pressure;Samples;Min_cycle;Max_cycle;Signal;HPM_P1;HPM_P2
2024/01/10 00:02:18;;;;;;;6.82;2.00;;;16.70;31.80;;;;;;5120315;27;20489;-61
2024/01/10 00:04:45;;;;;;;7.93;2.03;;;16.60;31.80;;;;;;5102298;27;20124;-48
2024/01/10 00:07:11;;;;;;;9.30;2.00;;;16.50;31.60;;;;;;5122197;27;20205;-52
2024/01/10 00:09:38;;;;;;;14.40;2.42;;;16.40;33.50;;;;;;5102027;27;20561;-50
2024/01/10 00:12:05;;;;;;;7.03;1.88;;;16.20;32.00;;;;;;5127294;27;20071;-45
2024/01/10 00:14:31;;;;;;;8.10;2.30;;;16.20;33.30;;;;;;5128090;27;20762;-54
2024/01/10 00:16:58;;;;;;;9.30;2.28;;;16.10;33.40;;;;;;5128873;27;20124;-50
2024/01/10 00:19:25;;;;;;;5.30;2.05;;;16.00;33.50;;;;;;5125348;27;20082;-49
2024/01/10 00:21:51;;;;;;;7.75;2.17;;;15.90;32.20;;;;;;5128671;27;20068;-49
2024/01/10 00:24:18;;;;;;;9.27;2.08;;;15.80;33.40;;;;;;5126093;27;20068;-52
2024/01/10 00:26:44;;;;;;;7.65;2.13;;;15.80;34.90;;;;;;5124897;27;20086;-56
2024/01/10 00:29:10;;;;;;;12.65;2.67;;;15.70;34.60;;;;;;5121008;27;20072;-51
2024/01/10 00:31:37;;;;;;;10.07;2.13;;;15.60;34.80;;;;;;5124248;27;20078;-55
2024/01/10 00:34:03;;;;;;;12.63;2.13;;;15.50;33.80;;;;;;5124815;27;20072;-50
2024/01/10 00:36:30;;;;;;;20.98;2.70;;;15.40;34.50;;;;;;5105830;27;20124;-49
2024/01/10 00:38:56;;;;;;;14.40;2.88;;;15.20;34.90;;;;;;5125910;27;20109;-50
2024/01/10 00:41:23;;;;;;;15.05;2.78;;;15.10;34.60;;;;;;5128348;27;20162;-50
2024/01/10 00:43:49;;;;;;;6.18;2.67;;;15.00;35.40;;;;;;5107465;27;20220;-49
2024/01/10 00:46:15;;;;;;;11.13;2.30;;;14.90;35.30;;;;;;5123305;27;20103;-49
2024/01/10 00:48:42;;;;;;;16.33;3.03;;;14.90;35.30;;;;;;5127128;27;20496;-50
2024/01/10 00:51:08;;;;;;;11.23;2.22;;;14.80;35.70;;;;;;5126286;27;20212;-49
2024/01/10 00:53:35;;;;;;;10.45;2.50;;;14.60;35.20;;;;;;5126607;27;20075;-52
2024/01/10 00:56:02;;;;;;;6.45;2.88;;;14.50;35.60;;;;;;5126796;27;20091;-51
2024/01/10 00:58:28;;;;;;;18.95;3.05;;;14.40;35.70;;;;;;5126567;27;20271;-44
2024/01/10 01:00:55;;;;;;;19.95;2.90;;;14.30;35.70;;;;;;5126125;27;20072;-50
2024/01/10 01:03:21;;;;;;;23.65;3.30;;;14.20;36.60;;;;;;5126219;27;20072;-44
2024/01/10 01:05:47;;;;;;;69.25;6.63;;;14.10;37.10;;;;;;5125774;27;20083;-46
2024/01/10 01:08:14;;;;;;;329.63;23.55;;;14.00;37.40;;;;;;5127617;27;20560;-44
2024/01/10 01:10:40;;;;;;;172.50;14.35;;;13.90;37.90;;;;;;5126204;27;20087;-47
2024/01/10 01:13:07;;;;;;;40.10;4.72;;;13.80;38.60;;;;;;5127520;27;20103;-44
2024/01/10 01:15:33;;;;;;;30.98;4.00;;;13.80;39.70;;;;;;5126663;27;20582;-50
2024/01/10 01:18:00;;;;;;;153.88;11.05;;;13.70;39.60;;;;;;5124138;27;20823;-48
2024/01/10 01:20:26;;;;;;;131.38;11.98;;;13.60;39.30;;;;;;5119484;27;20076;-46
2024/01/10 01:22:53;;;;;;;155.27;15.45;;;13.50;39.40;;;;;;5122681;27;20072;-51
2024/01/10 01:25:19;;;;;;;115.28;12.80;;;13.30;39.00;;;;;;5107921;27;20110;-52
2024/01/10 01:27:46;;;;;;;55.72;8.90;;;13.30;39.30;;;;;;5125528;27;20131;-53
2024/01/10 01:30:13;;;;;;;36.92;7.82;;;13.10;39.60;;;;;;5107678;27;20194;-45
2024/01/10 01:32:39;;;;;;;29.17;7.00;;;13.10;40.00;;;;;;5125851;27;20072;-48
2024/01/10 01:35:11;;;;;;;28.80;6.65;;;13.00;40.20;;;;;;5126528;27;20529;-59
2024/01/10 01:37:38;;;;;;;47.70;9.10;;;13.00;41.40;;;;;;5125648;27;20079;-45
2024/01/10 01:40:06;;;;;;;32.80;9.05;;;13.00;40.50;;;;;;5125890;27;20109;-55
2024/01/10 01:42:33;;;;;;;42.50;7.90;;;13.00;40.80;;;;;;5128489;27;20080;-46
2024/01/10 01:45:00;;;;;;;27.00;6.85;;;12.90;40.40;;;;;;5128611;27;20151;-44
2024/01/10 01:47:27;;;;;;;27.88;7.35;;;12.90;40.80;;;;;;5125711;28;20104;-45
2024/01/10 01:49:54;;;;;;;32.17;6.60;;;12.80;40.50;;;;;;5127269;28;20076;-47
2024/01/10 01:52:21;;;;;;;36.58;6.53;;;12.80;40.40;;;;;;5107648;28;20064;-46
2024/01/10 01:54:48;;;;;;;31.42;5.60;;;12.80;40.90;;;;;;5110090;28;20153;-49
2024/01/10 01:57:15;;;;;;;35.08;5.93;;;12.70;40.10;;;;;;5123782;28;20090;-45
2024/01/10 01:59:43;;;;;;;31.05;7.18;;;12.60;40.10;;;;;;5125164;28;20522;-47
2024/01/10 02:02:11;;;;;;;57.20;18.27;;;12.50;40.60;;;;;;5124262;28;20086;-54
2024/01/10 02:04:38;;;;;;;43.45;14.15;;;12.40;40.70;;;;;;5125575;28;20537;-49
2024/01/10 02:07:04;;;;;;;54.88;10.73;;;12.30;41.40;;;;;;5124759;28;20107;-50
2024/01/10 02:09:31;;;;;;;35.47;10.73;;;12.30;41.60;;;;;;5109833;27;20087;-45
2024/01/10 02:11:58;;;;;;;43.95;9.40;;;12.20;42.60;;;;;;5111358;27;20106;-54
2024/01/10 02:14:24;;;;;;;47.38;9.68;;;12.10;42.70;;;;;;5112328;27;20095;-45
2024/01/10 02:16:51;;;;;;;37.75;11.07;;;12.10;43.30;;;;;;5127140;27;20152;-52
2024/01/10 02:19:26;;;;;;;46.00;12.85;;;12.00;44.50;;;;;;5129602;27;20522;-50
2024/01/10 02:21:53;;;;;;;53.25;14.15;;;11.90;44.10;;;;;;5131470;27;20081;-47
2024/01/10 02:24:19;;;;;;;46.42;13.27;;;11.90;43.80;;;;;;5129998;27;20080;-50
2024/01/10 02:26:47;;;;;;;42.78;12.60;;;11.80;43.80;;;;;;5114491;27;20084;-55
2024/01/10 02:29:14;;;;;;;56.05;14.15;;;11.70;43.60;;;;;;5131190;27;20075;-44
2024/01/10 02:31:40;;;;;;;55.60;13.88;;;11.60;42.70;;;;;;5130033;27;20725;-45
2024/01/10 02:34:07;;;;;;;55.40;14.27;;;11.60;42.30;;;;;;5129486;27;20074;-47
2024/01/10 02:36:34;;;;;;;67.63;14.48;;;11.60;42.10;;;;;;5127143;27;20158;-46
2024/01/10 02:39:00;;;;;;;62.40;15.52;;;11.60;43.70;;;;;;5126315;27;20113;-47
2024/01/10 02:41:27;;;;;;;78.43;38.00;;;11.50;43.20;;;;;;5127121;27;20094;-45
2024/01/10 02:43:54;;;;;;;69.40;20.40;;;11.50;43.10;;;;;;5129120;27;20080;-48
2024/01/10 02:46:22;;;;;;;105.82;53.38;;;11.50;43.30;;;;;;5127303;27;20075;-42
2024/01/10 02:48:49;;;;;;;77.43;21.67;;;11.40;45.40;;;;;;5130761;27;20142;-48
2024/01/10 02:51:15;;;;;;;77.20;16.40;;;11.50;44.40;;;;;;5130338;27;21587;-49
2024/01/10 02:53:42;;;;;;;71.57;15.77;;;11.50;44.00;;;;;;5112157;27;21109;-47
2024/01/10 02:56:10;;;;;;;71.93;16.00;;;11.40;44.80;;;;;;5128431;27;20075;-49
2024/01/10 02:58:37;;;;;;;63.13;16.38;;;11.40;45.40;;;;;;5126440;27;20521;-46
2024/01/10 03:01:03;;;;;;;57.85;16.90;;;11.40;44.60;;;;;;5127784;27;20075;-47
2024/01/10 03:03:30;;;;;;;73.43;17.00;;;11.30;44.60;;;;;;5128891;27;20106;-55
2024/01/10 03:05:57;;;;;;;61.33;16.02;;;11.20;45.50;;;;;;5127634;27;20518;-47
2024/01/10 03:08:24;;;;;;;73.28;18.20;;;11.20;46.00;;;;;;5110037;27;20124;-48
2024/01/10 03:10:50;;;;;;;64.03;18.25;;;11.10;45.70;;;;;;5129753;27;20080;-50
2024/01/10 03:13:17;;;;;;;57.38;17.25;;;11.20;45.70;;;;;;5129050;27;20103;-46
2024/01/10 03:15:44;;;;;;;67.85;19.60;;;11.10;47.10;;;;;;5109441;27;20075;-57
2024/01/10 03:18:11;;;;;;;68.10;19.48;;;11.00;46.20;;;;;;5126896;27;20083;-47
2024/01/10 03:20:38;;;;;;;87.43;24.25;;;11.00;46.10;;;;;;5128278;27;20076;-47
2024/01/10 03:23:05;;;;;;;81.57;27.67;;;11.00;46.50;;;;;;5126785;27;20119;-45
2024/01/10 03:25:31;;;;;;;76.07;27.90;;;10.90;46.40;;;;;;5130904;27;20217;-45
2024/01/10 03:27:57;;;;;;;82.32;23.75;;;10.90;47.70;;;;;;5128353;27;20104;-52
2024/01/10 03:30:24;;;;;;;71.70;23.40;;;10.90;48.20;;;;;;5129204;27;21485;-46
2024/01/10 03:32:50;;;;;;;;;;;10.80;48.20;;;;;;5129677;27;20072;-46
2024/01/10 03:35:17;;;;;;;91.07;22.48;;;10.80;48.50;;;;;;5128642;27;19960;-44
2024/01/10 03:37:43;;;;;;;82.53;22.23;;;10.80;48.00;;;;;;5108664;27;20116;-47
2024/01/10 03:40:11;;;;;;;85.10;21.67;;;10.80;46.70;;;;;;5128694;27;20212;-47
2024/01/10 03:42:38;;;;;;;78.60;19.02;;;10.80;46.20;;;;;;5127616;27;20195;-43
2024/01/10 03:45:06;;;;;;;74.63;18.45;;;10.80;46.30;;;;;;5129503;27;20088;-47
2024/01/10 03:47:34;;;;;;;88.53;19.92;;;10.70;48.20;;;;;;5127002;27;20168;-44
2024/01/10 03:50:00;;;;;;;79.25;22.85;;;10.60;48.40;;;;;;5128610;27;20075;-48
2024/01/10 03:52:27;;;;;;;78.90;19.80;;;10.60;47.80;;;;;;5125306;27;20078;-51
2024/01/10 03:54:53;;;;;;;84.32;20.25;;;10.60;48.00;;;;;;5128660;27;20159;-46
2024/01/10 03:57:19;;;;;;;99.28;22.90;;;10.60;49.20;;;;;;5126978;27;20071;-50
2024/01/10 03:59:46;;;;;;;89.95;21.98;;;10.60;49.20;;;;;;5126050;27;20087;-50
2024/01/10 04:02:12;;;;;;;77.45;22.17;;;10.50;49.60;;;;;;5128868;27;20082;-48
2024/01/10 04:04:39;;;;;;;110.43;30.30;;;10.50;49.60;;;;;;5127684;27;20074;-53
2024/01/10 04:07:06;;;;;;;;;;;10.50;50.00;;;;;;5128175;27;20442;-49
2024/01/10 04:09:32;;;;;;;149.93;42.30;;;10.60;48.30;;;;;;5128488;27;20353;-52
2024/01/10 04:11:58;;;;;;;159.95;42.83;;;10.80;47.00;;;;;;5126341;27;21138;-49
2024/01/10 04:14:25;;;;;;;;;;;10.80;46.50;;;;;;5127607;27;20147;-57
2024/01/10 04:16:54;;;;;;;194.68;50.53;;;10.90;47.60;;;;;;5126735;27;20008;-48
2024/01/10 04:19:21;;;;;;;218.40;49.42;;;10.90;47.00;;;;;;5126942;27;20072;-53
2024/01/10 04:21:48;;;;;;;173.52;48.17;;;11.00;46.80;;;;;;5109411;27;20514;-51
2024/01/10 04:24:14;;;;;;;168.23;50.97;;;10.90;48.30;;;;;;5128194;27;20546;-50
2024/01/10 04:26:41;;;;;;;181.23;51.42;;;10.90;48.60;;;;;;5129640;27;20080;-56
2024/01/10 04:29:09;;;;;;;173.98;49.25;;;10.90;48.00;;;;;;5107050;27;20091;-53
2024/01/10 04:31:35;;;;;;;161.23;48.72;;;10.90;48.90;;;;;;5106960;27;20090;-52
2024/01/10 04:34:02;;;;;;;173.30;49.08;;;10.80;49.40;;;;;;5108353;27;20099;-54
2024/01/10 04:36:28;;;;;;;163.73;47.55;;;10.80;49.50;;;;;;5127082;27;20079;-54
2024/01/10 04:38:55;;;;;;;172.30;49.13;;;10.70;49.40;;;;;;5128631;27;20090;-52
2024/01/10 04:41:22;;;;;;;182.40;51.15;;;10.70;50.10;;;;;;5126794;27;20091;-57
2024/01/10 04:43:48;;;;;;;152.23;48.90;;;10.70;50.20;;;;;;5128022;27;20168;-54
2024/01/10 04:46:15;;;;;;;151.90;46.55;;;10.70;49.70;;;;;;5125384;27;20083;-52
2024/01/10 04:48:42;;;;;;;147.40;44.95;;;10.60;50.40;;;;;;5127238;27;20168;-53
2024/01/10 04:51:08;;;;;;;146.35;42.20;;;10.50;50.30;;;;;;5124990;27;20082;-51
2024/01/10 04:53:35;;;;;;;150.15;44.60;;;10.50;50.40;;;;;;5108350;27;20079;-51
2024/01/10 04:56:02;;;;;;;142.80;41.50;;;10.50;50.80;;;;;;5108909;27;20470;-49
2024/01/10 04:58:29;;;;;;;138.20;40.60;;;10.50;51.20;;;;;;5108015;27;20078;-53
2024/01/10 05:00:56;;;;;;;162.13;43.33;;;10.40;51.80;;;;;;5128436;27;20156;-51
2024/01/10 05:03:22;;;;;;;122.07;39.53;;;10.30;52.70;;;;;;5126590;27;20072;-53
2024/01/10 05:05:49;;;;;;;138.88;41.65;;;10.30;52.50;;;;;;5126704;27;20548;-51
2024/01/10 05:08:15;;;;;;;124.75;37.95;;;10.20;52.90;;;;;;5125733;27;20095;-50
2024/01/10 05:10:42;;;;;;;118.70;38.42;;;10.20;53.30;;;;;;5126613;27;20190;-51
2024/01/10 05:13:08;;;;;;;130.45;40.35;;;10.20;53.70;;;;;;5108301;27;20547;-52
2024/01/10 05:15:35;;;;;;;124.95;37.85;;;10.20;53.90;;;;;;5126625;27;20150;-55
2024/01/10 05:18:02;;;;;;;106.43;37.38;;;10.10;54.30;;;;;;5127093;27;20129;-49
2024/01/10 05:20:29;;;;;;;102.63;35.35;;;9.90;54.40;;;;;;5108870;27;20470;-49
2024/01/10 05:22:58;;;;;;;116.85;33.53;;;9.90;54.40;;;;;;5127468;27;20071;-51
2024/01/10 05:25:25;;;;;;;106.32;32.10;;;9.80;55.00;;;;;;5126409;27;20525;-53
2024/01/10 05:27:51;;;;;;;100.50;33.58;;;9.80;55.00;;;;;;5127543;27;20144;-46
2024/01/10 05:30:19;;;;;;;110.72;34.35;;;9.70;54.60;;;;;;5109602;27;20118;-50
2024/01/10 05:32:46;;;;;;;110.28;37.05;;;9.70;54.70;;;;;;5126936;27;20150;-49
2024/01/10 05:35:13;;;;;;;99.38;35.67;;;9.70;54.70;;;;;;5128275;27;20474;-56
2024/01/10 05:37:39;;;;;;;122.57;37.50;;;9.70;54.70;;;;;;5129608;27;20132;-53
2024/01/10 05:40:07;;;;;;;113.30;38.28;;;9.60;55.60;;;;;;5110088;28;20525;-53
2024/01/10 05:42:34;;;;;;;121.15;36.10;;;9.50;56.60;;;;;;5127575;27;20121;-51
2024/01/10 05:45:02;;;;;;;114.95;38.63;;;9.60;55.90;;;;;;5127563;27;20449;-52
2024/01/10 05:47:28;;;;;;;100.82;39.65;;;9.60;55.90;;;;;;5127746;27;20169;-53
2024/01/10 05:49:55;;;;;;;109.05;37.50;;;9.50;57.20;;;;;;5128483;28;20064;-51
2024/01/10 05:52:24;;;;;;;114.78;37.75;;;9.50;57.20;;;;;;5126406;28;20574;-61
2024/01/10 05:54:51;;;;;;;104.90;38.38;;;9.40;57.00;;;;;;5126766;28;20082;-53
2024/01/10 05:57:17;;;;;;;110.93;38.35;;;9.30;57.90;;;;;;5104996;28;20080;-49
2024/01/10 05:59:44;;;;;;;110.38;38.25;;;9.20;58.00;;;;;;5103699;28;20441;-51
2024/01/10 06:02:10;;;;;;;106.20;37.63;;;9.20;58.00;;;;;;5125600;28;20074;-48
2024/01/10 06:04:37;;;;;;;106.82;38.60;;;9.10;57.90;;;;;;5126620;28;20221;-50
2024/01/10 06:07:03;;;;;;;123.55;39.83;;;9.20;58.20;;;;;;5127277;28;20557;-49
2024/01/10 06:09:30;;;;;;;124.45;39.97;;;9.20;57.40;;;;;;5125859;28;20079;-54
2024/01/10 06:11:56;;;;;;;129.60;39.83;;;9.10;59.00;;;;;;5126176;28;20112;-47
2024/01/10 06:14:23;;;;;;;132.40;37.63;;;9.10;58.10;;;;;;5108557;28;20128;-46
2024/01/10 06:16:49;;;;;;;106.93;34.25;;;9.10;57.20;;;;;;5126662;28;20075;-48
2024/01/10 06:19:16;;;;;;;93.55;34.45;;;9.10;56.90;;;;;;5127118;28;20076;-49
2024/01/10 06:21:42;;;;;;;126.93;33.53;;;9.10;57.20;;;;;;5126467;28;20433;-53
2024/01/10 06:24:09;;;;;;;95.97;31.20;;;9.10;57.50;;;;;;5124812;28;20067;-49
2024/01/10 06:26:35;;;;;;;102.63;33.15;;;9.00;57.90;;;;;;5128277;28;20074;-46
2024/01/10 06:29:02;;;;;;;95.68;30.35;;;9.00;58.60;;;;;;5126983;28;20103;-46
2024/01/10 06:31:28;;;;;;;100.53;30.63;;;8.90;58.90;;;;;;5127041;28;20083;-47
2024/01/10 06:33:55;;;;;;;94.53;30.95;;;8.90;58.70;;;;;;5108925;28;20087;-46
2024/01/10 06:36:22;;;;;;;96.03;28.85;;;8.90;57.90;;;;;;5126345;28;20079;-53
2024/01/10 06:38:48;;;;;;;91.55;29.23;;;8.90;59.00;;;;;;5127508;28;20068;-52
2024/01/10 06:41:15;;;;;;;85.75;28.63;;;8.80;58.80;;;;;;5125326;28;20091;-52
2024/01/10 06:43:41;;;;;;;96.68;31.00;;;8.80;58.70;;;;;;5126128;28;21129;-57
2024/01/10 06:46:10;;;;;;;92.45;30.02;;;8.80;58.70;;;;;;5127490;28;20529;-54
2024/01/10 06:48:37;;;;;;;93.20;33.13;;;8.80;59.40;;;;;;5126283;28;20202;-52
2024/01/10 06:51:03;;;;;;;104.25;33.25;;;8.70;60.00;;;;;;5124542;28;20477;-49
2024/01/10 06:53:30;;;;;;;118.55;34.55;;;8.60;59.80;;;;;;5126239;28;20441;-48
2024/01/10 06:55:56;;;;;;;91.68;33.58;;;8.60;60.10;;;;;;5129175;27;20530;-49
2024/01/10 06:58:22;;;;;;;103.85;33.85;;;8.60;59.70;;;;;;5124315;27;20072;-46
2024/01/10 07:00:50;;;;;;;105.18;35.10;;;8.60;60.40;;;;;;5129771;27;20152;-49
2024/01/10 07:03:17;;;;;;;90.03;32.90;;;8.60;60.30;;;;;;5130124;27;20546;-51
2024/01/10 07:05:44;;;;;;;100.50;33.50;;;8.60;60.00;;;;;;5129937;27;20540;-53
2024/01/10 07:08:11;;;;;;;101.72;33.42;;;8.60;59.90;;;;;;5111158;27;20145;-50
2024/01/10 07:10:38;;;;;;;120.47;39.17;;;8.40;61.00;;;;;;5128460;27;20075;-51
2024/01/10 07:13:04;;;;;;;106.82;35.67;;;8.40;61.30;;;;;;5129333;27;20170;-49
2024/01/10 07:15:31;;;;;;;86.82;33.17;;;8.40;61.40;;;;;;5110713;27;20082;-52
2024/01/10 07:17:57;;;;;;;102.32;33.67;;;8.40;61.00;;;;;;5135053;27;20074;-52
2024/01/10 07:20:24;;;;;;;89.20;32.55;;;8.40;60.80;;;;;;5130491;27;20122;-51
2024/01/10 07:22:51;;;;;;;105.60;34.95;;;8.30;61.20;;;;;;5129068;27;20076;-49
2024/01/10 07:25:18;;;;;;;114.60;35.58;;;8.20;60.80;;;;;;5130389;27;20080;-48
2024/01/10 07:27:44;;;;;;;110.35;34.38;;;8.30;61.30;;;;;;5129537;27;20118;-49
2024/01/10 07:30:14;;;;;;;83.70;32.78;;;8.30;61.50;;;;;;5109857;27;20095;-50
2024/01/10 07:32:44;;;;;;;108.95;34.35;;;8.20;61.90;;;;;;5129361;27;20079;-48
2024/01/10 07:35:13;;;;;;;98.80;33.25;;;8.20;61.60;;;;;;5128087;27;20099;-47
2024/01/10 07:37:44;;;;;;;95.30;34.20;;;8.10;61.20;;;;;;5129624;27;20067;-51
2024/01/10 07:40:10;;;;;;;109.53;33.53;;;8.10;61.40;;;;;;5129931;27;20103;-47
2024/01/10 07:42:37;;;;;;;106.85;33.03;;;8.10;61.70;;;;;;5111706;27;20068;-46
2024/01/10 07:45:05;;;;;;;94.65;32.80;;;8.10;61.10;;;;;;5129204;27;20521;-46
2024/01/10 07:47:34;;;;;;;102.47;34.05;;;8.00;62.50;;;;;;5128848;27;20115;-53
2024/01/10 07:50:00;;;;;;;102.90;33.95;;;8.10;62.40;;;;;;5127773;27;20072;-50
2024/01/10 07:52:27;;;;;;;93.93;31.10;;;8.10;62.00;;;;;;5127751;27;20529;-52
2024/01/10 07:54:53;;;;;;;88.25;32.97;;;8.10;62.50;;;;;;5129503;27;20072;-50
2024/01/10 07:57:20;;;;;;;87.60;31.60;;;8.00;63.10;;;;;;5130119;27;20071;-46
2024/01/10 07:59:47;;;;;;;77.97;30.02;;;8.10;62.70;;;;;;5130755;27;20475;-53
2024/01/10 08:02:13;;;;;;;94.47;29.85;;;8.10;62.20;;;;;;5130078;27;20193;-49
2024/01/10 08:04:40;;;;;;;87.25;30.95;;;8.00;62.30;;;;;;5128323;27;20530;-52
2024/01/10 08:07:06;;;;;;;88.53;30.27;;;7.90;62.50;;;;;;5110767;27;20471;-48
2024/01/10 08:09:33;;;;;;;86.28;29.33;;;7.80;63.50;;;;;;5128424;27;20083;-51
2024/01/10 08:11:59;;;;;;;87.78;30.05;;;8.00;63.30;;;;;;5130201;27;20072;-55
2024/01/10 08:14:26;;;;;;;82.93;30.00;;;8.00;62.70;;;;;;5129216;27;20102;-53
2024/01/10 08:16:54;;;;;;;78.03;28.67;;;7.90;63.90;;;;;;5129807;27;20179;-55
2024/01/10 08:19:21;;;;;;;86.85;28.63;;;7.80;63.70;;;;;;5127775;27;20536;-48
2024/01/10 08:21:47;;;;;;;83.93;28.63;;;7.80;63.50;;;;;;5127413;27;20072;-48
2024/01/10 08:24:14;;;;;;;78.82;28.48;;;7.80;64.20;;;;;;5127700;27;20075;-47
2024/01/10 08:26:40;;;;;;;78.70;27.90;;;7.70;64.30;;;;;;5111580;27;20105;-51
2024/01/10 08:29:07;;;;;;;87.35;29.48;;;7.80;64.60;;;;;;5126448;27;20127;-50
2024/01/10 08:31:33;;;;;;;81.63;28.63;;;7.80;64.30;;;;;;5127510;27;20076;-48
2024/01/10 08:33:59;;;;;;;77.70;28.73;;;7.80;63.70;;;;;;5127844;27;20470;-46
2024/01/10 08:36:26;;;;;;;83.28;28.02;;;7.80;63.20;;;;;;5129615;27;20538;-56
2024/01/10 08:38:53;;;;;;;86.78;29.35;;;7.80;62.90;;;;;;5128324;27;20537;-47
2024/01/10 08:41:19;;;;;;;87.00;28.98;;;7.70;64.40;;;;;;5128031;27;20144;-49
2024/01/10 08:43:47;;;;;;;75.00;29.05;;;7.70;64.60;;;;;;5129001;27;20091;-48
2024/01/10 08:46:14;;;;;;;58.65;26.15;;;7.70;64.10;;;;;;5125186;27;20075;-47
2024/01/10 08:48:41;;;;;;;77.28;25.90;;;7.60;65.00;;;;;;5128333;27;20146;-48
2024/01/10 08:51:09;;;;;;;64.32;25.63;;;7.50;64.20;;;;;;5109093;27;20084;-47
2024/01/10 08:53:36;;;;;;;68.50;27.27;;;7.60;63.80;;;;;;5126317;27;20114;-51
2024/01/10 08:56:02;;;;;;;80.13;27.25;;;7.40;64.70;;;;;;5128721;27;20072;-47
2024/01/10 08:58:29;;;;;;;85.55;29.33;;;7.40;64.60;;;;;;5126965;27;20098;-51
2024/01/10 09:00:55;;;;;;;80.20;28.70;;;7.40;64.20;;;;;;5126379;27;20100;-46
2024/01/10 09:03:21;;;;;;;83.07;31.70;;;7.50;64.20;;;;;;5128573;27;20083;-48
2024/01/10 09:05:48;;;;;;;87.03;30.02;;;7.40;63.60;;;;;;5109373;27;20095;-51
2024/01/10 09:08:15;;;;;;;101.30;31.30;;;7.40;64.20;;;;;;5126916;27;20099;-50
2024/01/10 09:10:42;;;;;;;89.45;31.48;;;7.40;64.50;;;;;;5127989;27;20140;-50
2024/01/10 09:13:09;;;;;;;84.15;30.00;;;7.30;65.30;;;;;;5126287;27;20543;-48
2024/01/10 09:15:35;;;;;;;73.15;28.98;;;7.20;66.20;;;;;;5126933;27;20072;-48
2024/01/10 09:18:02;;;;;;;76.38;26.67;;;7.30;65.40;;;;;;5126708;27;20075;-49
2024/01/10 09:20:29;;;;;;;69.00;25.55;;;7.30;64.40;;;;;;5127423;27;20078;-48
2024/01/10 09:22:55;;;;;;;71.97;27.90;;;7.20;64.20;;;;;;5127786;27;20075;-50
2024/01/10 09:25:21;;;;;;;81.28;30.17;;;7.20;64.50;;;;;;5127114;27;20071;-47
2024/01/10 09:27:48;;;;;;;71.82;28.17;;;7.20;64.70;;;;;;5127373;27;20143;-51
2024/01/10 09:30:18;;;;;;;72.25;29.35;;;7.10;65.30;;;;;;5125455;27;20072;-52
2024/01/10 09:32:45;;;;;;;62.70;27.58;;;7.30;65.70;;;;;;5125617;27;20080;-51
2024/01/10 09:35:12;;;;;;;76.60;28.02;;;7.20;65.10;;;;;;5126889;27;20154;-45
2024/01/10 09:37:39;;;;;;;67.82;26.52;;;7.10;65.30;;;;;;5124525;27;20078;-46
2024/01/10 09:40:07;;;;;;;62.17;26.05;;;7.00;66.90;;;;;;5124057;27;20075;-49
2024/01/10 09:42:36;;;;;;;55.95;26.45;;;7.00;66.30;;;;;;5125622;27;20072;-55
2024/01/10 09:45:05;;;;;;;66.13;28.15;;;7.00;67.30;;;;;;5125720;27;20525;-46
2024/01/10 09:47:32;;;;;;;68.10;27.52;;;7.00;65.70;;;;;;5126795;27;20108;-48
2024/01/10 09:50:02;;;;;;;75.10;34.47;;;6.90;65.50;;;;;;5127482;28;20120;-51
2024/01/10 09:52:29;;;;;;;83.95;40.95;;;6.80;65.50;;;;;;5126106;28;20067;-45
2024/01/10 09:54:57;;;;;;;84.88;35.35;;;6.80;66.30;;;;;;5126334;28;20076;-51
2024/01/10 09:57:25;;;;;;;72.75;27.98;;;6.70;66.30;;;;;;5126343;28;20076;-47
2024/01/10 09:59:52;;;;;;;61.22;26.55;;;6.70;66.90;;;;;;5125423;28;20086;-50
2024/01/10 10:02:20;;;;;;;53.13;23.83;;;6.80;66.50;;;;;;5092277;28;20523;-45
2024/01/10 10:05:06;;;;;;;63.72;24.52;;;6.70;66.60;;;;;;5126481;28;20076;-47
2024/01/10 10:07:44;;;;;;;53.40;23.00;;;6.60;67.10;;;;;;5126510;28;20103;-48
2024/01/10 10:10:12;;;;;;;61.10;26.70;;;6.60;68.20;;;;;;5124606;28;20789;-47
2024/01/10 10:12:45;;;;;;;72.93;27.52;;;6.60;68.20;;;;;;5125696;28;20089;-54
2024/01/10 10:15:16;;;;;;;56.50;23.05;;;6.50;68.20;;;;;;5125304;28;20076;-50
2024/01/10 10:17:47;;;;;;;54.15;22.83;;;6.40;68.80;;;;;;5126681;28;21329;-48
2024/01/10 10:20:22;;;;;;;42.20;20.17;;;6.50;68.80;;;;;;5126373;28;20082;-50
2024/01/10 10:22:58;;;;;;;52.00;20.60;;;6.40;69.30;;;;;;5126667;28;20380;-49
2024/01/10 10:25:29;;;;;;;60.50;22.13;;;6.20;69.60;;;;;;5126820;28;20161;-53
2024/01/10 10:27:55;;;;;;;53.45;21.40;;;6.30;70.70;;;;;;5127031;28;20103;-48
2024/01/10 10:30:22;;;;;;;41.10;19.13;;;6.30;71.00;;;;;;5128057;27;20075;-53
2024/01/10 10:32:49;;;;;;;45.63;19.75;;;6.10;71.80;;;;;;5111880;27;20499;-52
2024/01/10 10:35:16;;;;;;;48.10;19.77;;;6.10;72.40;;;;;;5130773;27;20086;-47
2024/01/10 10:37:42;;;;;;;48.05;21.27;;;6.00;72.70;;;;;;5127708;27;20076;-53
2024/01/10 10:40:09;;;;;;;49.58;20.13;;;5.90;74.20;;;;;;5129701;27;20080;-50
2024/01/10 10:42:39;;;;;;;50.03;20.73;;;5.80;74.80;;;;;;5128967;27;20080;-51
2024/01/10 10:45:06;;;;;;;47.65;25.73;;;5.60;75.30;;;;;;5129514;27;20082;-50
2024/01/10 10:47:38;;;;;;;54.83;24.92;;;5.60;75.40;;;;;;5129608;27;20166;-46
2024/01/10 10:50:06;;;;;;;46.08;20.38;;;5.70;76.40;;;;;;5109688;27;20114;-55
2024/01/10 10:52:34;;;;;;;39.63;20.20;;;5.60;76.30;;;;;;5110999;27;20076;-54
2024/01/10 10:55:00;;;;;;;56.47;21.55;;;5.60;76.40;;;;;;5130272;27;20517;-51
2024/01/10 10:57:27;;;;;;;55.25;19.58;;;5.50;76.80;;;;;;5128634;27;20103;-49
2024/01/10 10:59:55;;;;;;;43.88;19.25;;;5.60;77.20;;;;;;5129027;27;20068;-55
2024/01/10 11:02:26;;;;;;;43.33;18.80;;;5.40;76.70;;;;;;5129883;27;20075;-45
2024/01/10 11:04:55;;;;;;;53.38;19.48;;;5.40;78.10;;;;;;5130574;27;20072;-46
2024/01/10 11:07:21;;;;;;;56.58;20.98;;;5.50;77.80;;;;;;5130187;27;20096;-56
2024/01/10 11:09:50;;;;;;;45.38;19.67;;;5.50;77.90;;;;;;5128194;27;20501;-48
2024/01/10 11:12:42;;;;;;;52.50;19.73;;;5.50;77.90;;;;;;5127138;27;20423;-48
2024/01/10 11:15:53;;;;;;;46.50;19.50;;;5.50;77.70;;;;;;5126866;27;20449;-55
2024/01/10 11:18:44;;;;;;;46.72;20.02;;;5.50;78.10;;;;;;5085968;27;20088;-48
2024/01/10 11:21:29;;;;;;;44.45;19.40;;;5.40;78.90;;;;;;5126372;27;20080;-48
2024/01/10 11:23:59;;;;;;;53.20;20.20;;;5.50;79.10;;;;;;5109466;27;20091;-49
2024/01/10 11:26:26;;;;;;;49.53;19.00;;;5.30;78.50;;;;;;5128236;27;20072;-48
2024/01/10 11:28:53;;;;;;;48.55;18.95;;;5.30;78.90;;;;;;5128619;27;20104;-47
2024/01/10 11:31:30;;;;;;;48.20;19.40;;;5.30;79.50;;;;;;5130064;27;20088;-51
2024/01/10 11:34:02;;;;;;;48.28;18.48;;;5.40;79.40;;;;;;5126767;27;20071;-48
2024/01/10 11:36:28;;;;;;;44.08;19.83;;;5.50;78.90;;;;;;5129489;27;20449;-49
2024/01/10 11:39:01;;;;;;;45.70;19.27;;;5.50;78.50;;;;;;5128829;27;20093;-50
2024/01/10 11:41:28;;;;;;;50.75;20.48;;;5.40;78.40;;;;;;5128914;27;20116;-49
2024/01/10 11:44:17;;;;;;;47.90;20.13;;;5.50;78.50;;;;;;5129084;27;20075;-49
2024/01/10 11:46:52;;;;;;;47.40;20.40;;;5.50;78.50;;;;;;5128909;27;20101;-47
2024/01/10 11:49:20;;;;;;;53.17;21.10;;;5.40;78.90;;;;;;5111640;27;20499;-53
2024/01/10 11:51:52;;;;;;;46.78;20.10;;;5.20;78.80;;;;;;5126043;27;20200;-55
2024/01/10 11:54:37;;;;;;;54.10;21.77;;;5.10;79.20;;;;;;5127928;27;20098;-53
2024/01/10 11:57:08;;;;;;;44.55;20.25;;;4.90;79.50;;;;;;5127757;27;20076;-47
2024/01/10 11:59:35;;;;;;;56.10;21.52;;;5.00;81.00;;;;;;5128351;27;20064;-52
2024/01/10 12:02:03;;;;;;;54.17;21.10;;;4.90;80.60;;;;;;5128180;27;20159;-58
2024/01/10 12:04:32;;;;;;;48.45;20.17;;;5.00;81.20;;;;;;5127950;27;20566;-53
2024/01/10 12:06:59;;;;;;;42.28;17.05;;;5.10;81.30;;;;;;5130318;27;20076;-48
2024/01/10 12:09:25;;;;;;;49.78;21.30;;;5.10;81.70;;;;;;5125923;27;20190;-48
2024/01/10 12:11:52;;;;;;;53.97;22.20;;;5.20;81.10;;;;;;5125826;27;20080;-51
2024/01/10 12:14:20;;;;;;;50.95;22.10;;;5.20;80.50;;;;;;5128082;27;20197;-55
2024/01/10 12:16:47;;;;;;;49.60;21.42;;;5.20;80.40;;;;;;5127512;27;20075;-49
2024/01/10 12:19:14;;;;;;;47.58;20.67;;;5.10;80.90;;;;;;5126527;27;20477;-48
2024/01/10 12:21:41;;;;;;;58.38;22.90;;;5.00;80.90;;;;;;5128714;27;20072;-49
2024/01/10 12:24:07;;;;;;;54.10;22.42;;;5.10;80.80;;;;;;5128454;27;20235;-49
2024/01/10 12:26:35;;;;;;;66.10;25.02;;;5.10;81.10;;;;;;5109165;27;20072;-52
2024/01/10 12:29:06;;;;;;;71.93;26.92;;;5.10;81.00;;;;;;5129804;27;20190;-48
2024/01/10 12:31:32;;;;;;;62.80;26.67;;;5.10;81.10;;;;;;5130098;27;20080;-49
2024/01/10 12:34:02;;;;;;;58.97;25.48;;;5.00;80.80;;;;;;5126972;27;20200;-47
2024/01/10 12:36:29;;;;;;;60.88;27.15;;;5.00;81.60;;;;;;5126779;27;20100;-49